Time;durP1;ratioP1;P1;durP2;ratioP2;P2;SDS_P1;SDS_P2;PMS_P1;PMS_P2;Temp;Humidity;BMP_temperature;BMP_pressure;BME280_temperature;BME280_humidity;BME280_pressure;Samples;Min_cycle;Max_cycle;Signal;HPM_P1;HPM_P2
2022/12/15 00:38:44;;;;;;;2.10;1.10;;;4.40;41.00;;;;;;4991689;28;20165;-73
2022/12/15 00:41:12;;;;;;;2.40;1.40;;;4.50;41.00;;;;;;4991554;28;20719;-72
2022/12/15 00:43:38;;;;;;;2.40;1.40;;;4.40;41.40;;;;;;4991646;28;20485;-73
2022/12/15 00:48:48;;;;;;;4.78;2.30;;;4.40;41.50;;;;;;4991820;28;20220;-73
2022/12/15 00:51:14;;;;;;;3.50;1.77;;;4.20;41.50;;;;;;4991901;28;20190;-74
2022/12/15 01:21:11;;;;;;;3.92;1.73;;;4.10;43.10;;;;;;4994871;28;20168;-73
2022/12/15 01:23:37;;;;;;;2.80;1.55;;;4.10;42.00;;;;;;4995010;28;20170;-74
2022/12/15 01:26:05;;;;;;;2.60;1.40;;;4.10;41.90;;;;;;4994816;28;20217;-72
2022/12/15 01:28:31;;;;;;;2.40;1.30;;;4.10;42.10;;;;;;4994699;28;20252;-74
2022/12/15 01:30:57;;;;;;;2.30;1.30;;;4.20;42.50;;;;;;4995056;28;20555;-74
2022/12/15 01:33:22;;;;;;;2.93;1.63;;;4.40;41.50;;;;;;4994805;28;20256;-73
2022/12/15 01:35:59;;;;;;;2.90;1.47;;;4.50;41.00;;;;;;4994626;28;20986;-73
2022/12/15 01:38:26;;;;;;;2.60;1.60;;;4.40;41.10;;;;;;4994864;28;20193;-73
2022/12/15 01:40:58;;;;;;;2.20;1.25;;;4.40;41.60;;;;;;4994306;28;20174;-74
2022/12/15 01:43:27;;;;;;;4.65;1.33;;;4.50;41.20;;;;;;4995018;28;20552;-73
2022/12/15 01:46:01;;;;;;;3.70;2.22;;;4.60;40.70;;;;;;4994792;28;20252;-73
2022/12/15 01:48:29;;;;;;;3.60;1.75;;;4.60;40.60;;;;;;4994656;28;20179;-71
2022/12/15 01:50:58;;;;;;;2.20;1.10;;;4.80;40.50;;;;;;4994434;28;20629;-71
2022/12/15 01:53:24;;;;;;;6.25;3.35;;;4.90;39.70;;;;;;4994282;28;20166;-69
2022/12/15 01:55:50;;;;;;;3.53;2.08;;;4.70;39.70;;;;;;4994172;28;20225;-70
2022/12/15 01:58:17;;;;;;;2.93;2.00;;;4.70;40.30;;;;;;4994472;28;20174;-69
2022/12/15 02:00:43;;;;;;;2.42;1.60;;;4.70;39.80;;;;;;4994349;28;20212;-71
2022/12/15 02:03:09;;;;;;;2.50;1.53;;;4.80;39.80;;;;;;4994049;28;20589;-71
2022/12/15 02:05:36;;;;;;;2.20;1.38;;;4.60;40.00;;;;;;4994167;28;20197;-70
2022/12/15 02:08:03;;;;;;;2.50;1.50;;;4.50;40.00;;;;;;4993958;28;20486;-71
2022/12/15 02:10:39;;;;;;;2.65;1.58;;;4.60;40.40;;;;;;4994303;28;20304;-71
2022/12/15 02:13:43;;;;;;;2.10;1.38;;;4.50;40.20;;;;;;4993598;28;20180;-71
2022/12/15 02:16:56;;;;;;;2.72;2.03;;;4.50;40.40;;;;;;4994079;28;20213;-71
2022/12/15 02:19:27;;;;;;;9.80;3.17;;;4.50;40.70;;;;;;4993962;28;20170;-71
2022/12/15 02:22:33;;;;;;;2.50;1.65;;;4.50;40.60;;;;;;4993715;28;20217;-71
2022/12/15 02:25:27;;;;;;;4.00;2.58;;;4.40;40.60;;;;;;4993421;28;20193;-72
2022/12/15 02:28:00;;;;;;;3.17;1.95;;;4.30;40.90;;;;;;4993732;28;20715;-71
2022/12/15 02:30:32;;;;;;;2.42;1.58;;;4.30;41.20;;;;;;4993779;28;20228;-72
2022/12/15 02:33:24;;;;;;;5.63;3.15;;;4.30;40.90;;;;;;4993500;28;20206;-72
2022/12/15 02:36:10;;;;;;;2.30;1.27;;;4.40;41.10;;;;;;4993121;28;20214;-71
2022/12/15 02:38:40;;;;;;;6.68;3.40;;;4.40;40.70;;;;;;4992859;28;20186;-71
2022/12/15 02:41:39;;;;;;;4.72;3.10;;;4.50;40.40;;;;;;4993627;28;20159;-71
2022/12/15 02:44:10;;;;;;;2.20;1.10;;;4.50;40.40;;;;;;4993140;28;20225;-72
2022/12/15 02:47:02;;;;;;;2.10;1.10;;;4.50;40.60;;;;;;4993438;28;20197;-71
2022/12/15 02:49:36;;;;;;;2.50;1.40;;;4.60;40.20;;;;;;4993501;28;20179;-71
2022/12/15 02:52:26;;;;;;;2.80;1.67;;;4.40;41.10;;;;;;4992999;28;20197;-72
2022/12/15 02:55:32;;;;;;;2.83;1.73;;;4.30;40.90;;;;;;4992988;28;20509;-71
2022/12/15 02:58:06;;;;;;;2.65;1.50;;;4.10;41.50;;;;;;4990859;28;20196;-71
2022/12/15 03:00:39;;;;;;;2.10;1.00;;;4.30;41.30;;;;;;4993262;28;20189;-70
2022/12/15 03:03:05;;;;;;;2.33;1.40;;;4.40;41.10;;;;;;4993095;28;20588;-71
2022/12/15 03:05:31;;;;;;;3.47;2.28;;;4.50;40.60;;;;;;4993059;28;20257;-71
2022/12/15 03:07:57;;;;;;;2.85;1.75;;;4.40;41.10;;;;;;4992504;28;20177;-71
2022/12/15 03:10:25;;;;;;;4.83;1.83;;;4.40;40.80;;;;;;4993107;28;20197;-71
2022/12/15 03:12:51;;;;;;;5.18;2.15;;;4.20;41.30;;;;;;4992970;28;20182;-71
2022/12/15 03:15:17;;;;;;;5.93;1.80;;;4.40;42.30;;;;;;4992876;28;20202;-71
2022/12/15 03:17:43;;;;;;;9.93;2.40;;;4.30;42.10;;;;;;4992649;28;20401;-71
2022/12/15 03:20:10;;;;;;;6.67;2.03;;;4.30;41.20;;;;;;4991609;28;20174;-71
2022/12/15 03:22:36;;;;;;;2.20;1.30;;;4.30;41.70;;;;;;4992748;28;20169;-70
2022/12/15 03:25:03;;;;;;;2.83;1.55;;;4.30;41.50;;;;;;4991995;28;20178;-71
2022/12/15 03:27:29;;;;;;;2.15;1.17;;;4.30;41.70;;;;;;4992867;28;20197;-71
2022/12/15 03:29:54;;;;;;;3.70;1.70;;;4.40;41.70;;;;;;4992792;28;20257;-71
2022/12/15 03:32:20;;;;;;;2.73;1.20;;;4.50;40.60;;;;;;4993284;28;20417;-70
2022/12/15 03:34:46;;;;;;;2.22;1.30;;;4.40;40.80;;;;;;5003727;28;20205;-71
2022/12/15 03:37:12;;;;;;;2.07;1.10;;;4.30;41.20;;;;;;4998971;28;20764;-72
2022/12/15 03:39:38;;;;;;;2.60;1.60;;;4.40;41.10;;;;;;4999134;28;20166;-71
2022/12/15 03:42:03;;;;;;;3.37;1.97;;;4.30;42.00;;;;;;5002838;28;20176;-71
2022/12/15 03:44:29;;;;;;;3.73;2.13;;;4.70;41.00;;;;;;4998855;28;20898;-72
2022/12/15 03:46:54;;;;;;;2.70;1.53;;;4.60;40.40;;;;;;5001392;28;20228;-71
2022/12/15 03:49:20;;;;;;;3.07;1.83;;;4.50;40.10;;;;;;4993324;28;20173;-72
2022/12/15 03:51:46;;;;;;;3.13;1.93;;;4.50;40.70;;;;;;4992873;28;20355;-72
2022/12/15 03:54:12;;;;;;;2.20;1.20;;;4.40;40.40;;;;;;4993214;28;20249;-72
2022/12/15 03:56:38;;;;;;;2.20;1.20;;;4.30;41.00;;;;;;4991791;28;20675;-72
2022/12/15 03:59:04;;;;;;;2.30;1.45;;;4.30;40.80;;;;;;4992835;28;20185;-72
2022/12/15 04:01:32;;;;;;;2.20;1.20;;;4.40;40.90;;;;;;4992165;28;20174;-71
2022/12/15 04:03:59;;;;;;;2.13;1.20;;;4.40;41.10;;;;;;4992141;28;20173;-71
2022/12/15 04:06:26;;;;;;;3.35;1.98;;;4.40;41.00;;;;;;4991619;28;20201;-71
2022/12/15 04:08:51;;;;;;;2.30;1.42;;;4.50;40.60;;;;;;4992123;28;20181;-71
2022/12/15 04:11:17;;;;;;;2.10;1.20;;;4.30;40.50;;;;;;4992131;28;20232;-72
2022/12/15 04:13:43;;;;;;;2.95;1.73;;;4.30;40.80;;;;;;4991841;28;20174;-69
2022/12/15 04:16:09;;;;;;;2.93;1.47;;;4.30;41.10;;;;;;4991774;28;20641;-71
2022/12/15 04:18:35;;;;;;;5.83;2.03;;;4.40;40.60;;;;;;4992275;28;21015;-70
2022/12/15 04:21:01;;;;;;;3.05;1.92;;;4.40;40.60;;;;;;4991826;28;20405;-72
2022/12/15 04:23:26;;;;;;;2.20;1.10;;;4.30;40.60;;;;;;4992083;28;20544;-71
2022/12/15 05:31:54;;;;;;;4.60;3.00;;;4.40;40.70;;;;;;4994696;28;20228;-72
2022/12/15 05:34:22;;;;;;;2.27;1.27;;;4.40;40.50;;;;;;4994897;28;20594;-72
2022/12/15 05:36:49;;;;;;;2.78;1.60;;;4.40;40.40;;;;;;4994137;28;20217;-73
2022/12/15 05:39:14;;;;;;;2.30;1.33;;;4.30;40.70;;;;;;4994787;28;20253;-72
2022/12/15 05:41:40;;;;;;;3.77;1.93;;;4.40;40.60;;;;;;4994788;28;20201;-72
2022/12/15 05:44:06;;;;;;;3.17;1.83;;;4.30;40.50;;;;;;4994510;28;20182;-72
2022/12/15 05:46:31;;;;;;;3.13;1.63;;;4.20;40.70;;;;;;4994404;28;20210;-72
2022/12/15 05:48:57;;;;;;;8.33;3.00;;;4.10;41.10;;;;;;4994163;28;20409;-72
2022/12/15 05:51:22;;;;;;;2.60;1.40;;;4.10;41.20;;;;;;4994408;28;20174;-73
2022/12/15 05:53:48;;;;;;;3.17;2.07;;;4.40;40.80;;;;;;4994505;28;20253;-72
2022/12/15 05:56:14;;;;;;;3.87;2.03;;;4.50;40.30;;;;;;4994128;28;20213;-73
2022/12/15 05:58:40;;;;;;;3.30;2.07;;;4.60;40.30;;;;;;4994265;28;20232;-71
2022/12/15 06:01:09;;;;;;;2.30;1.30;;;4.50;39.90;;;;;;4994258;28;20175;-72
2022/12/15 06:03:34;;;;;;;2.55;1.52;;;4.30;40.80;;;;;;4994508;28;20169;-72
2022/12/15 06:06:01;;;;;;;2.20;1.27;;;4.40;40.70;;;;;;4993948;28;20194;-72
2022/12/15 06:08:32;;;;;;;11.85;2.92;;;4.60;40.40;;;;;;4992704;28;20432;-72
2022/12/15 06:10:57;;;;;;;2.40;1.55;;;4.40;40.60;;;;;;4993917;28;20174;-72
2022/12/15 06:13:24;;;;;;;3.30;1.83;;;4.30;41.00;;;;;;4994090;28;20181;-72
2022/12/15 06:16:14;;;;;;;2.10;1.10;;;4.50;40.70;;;;;;4993941;28;20464;-72
2022/12/15 06:18:45;;;;;;;2.20;1.27;;;4.50;40.60;;;;;;4993689;28;20559;-73
2022/12/15 06:21:13;;;;;;;2.47;1.42;;;4.30;40.60;;;;;;4993732;28;20657;-72
2022/12/15 06:23:39;;;;;;;6.40;3.28;;;4.30;41.40;;;;;;4993717;28;20641;-72
2022/12/15 06:26:27;;;;;;;7.13;2.17;;;4.40;40.90;;;;;;4994453;28;20198;-72
2022/12/15 06:28:56;;;;;;;2.55;1.67;;;4.40;40.80;;;;;;4993706;28;20696;-72
2022/12/15 06:31:22;;;;;;;2.60;1.70;;;4.40;40.80;;;;;;4993675;28;20272;-72
2022/12/15 06:33:48;;;;;;;5.13;1.83;;;4.40;41.40;;;;;;4993685;28;20217;-72
2022/12/15 06:36:15;;;;;;;3.08;2.05;;;4.50;41.00;;;;;;4993577;28;20465;-73
2022/12/15 06:38:42;;;;;;;2.20;1.30;;;4.40;40.80;;;;;;4993715;28;20257;-73
2022/12/15 06:41:09;;;;;;;3.58;2.25;;;4.50;40.70;;;;;;4993558;28;20193;-72
2022/12/15 06:43:35;;;;;;;2.72;1.80;;;4.30;41.30;;;;;;4993659;28;20185;-70
2022/12/15 06:46:01;;;;;;;2.10;1.20;;;4.10;41.50;;;;;;4993065;28;20206;-72
2022/12/15 06:48:27;;;;;;;2.90;1.95;;;4.00;41.80;;;;;;4993680;28;20182;-71
2022/12/15 06:50:53;;;;;;;3.80;2.10;;;4.10;41.80;;;;;;4993280;28;20261;-73
2022/12/15 06:53:20;;;;;;;2.22;1.30;;;4.30;41.20;;;;;;4993433;28;20219;-73
2022/12/15 06:55:46;;;;;;;5.57;3.15;;;4.40;41.30;;;;;;4993510;28;20213;-73
2022/12/15 06:58:13;;;;;;;2.67;1.75;;;4.40;40.80;;;;;;4993355;28;20711;-72
2022/12/15 07:00:41;;;;;;;2.50;1.40;;;4.60;40.50;;;;;;4992547;28;20205;-76
2022/12/15 07:03:12;;;;;;;8.73;3.17;;;4.50;40.70;;;;;;4993079;28;20538;-73
2022/12/15 07:05:37;;;;;;;2.30;1.30;;;4.60;40.40;;;;;;4993140;28;20198;-72
2022/12/15 07:08:03;;;;;;;6.83;1.97;;;4.40;40.50;;;;;;4992945;28;20664;-71
2022/12/15 07:10:29;;;;;;;4.20;1.70;;;4.50;40.90;;;;;;4992983;28;20188;-73
2022/12/15 07:12:57;;;;;;;3.20;1.83;;;4.50;40.30;;;;;;4992951;28;20229;-73
2022/12/15 07:15:23;;;;;;;6.95;2.42;;;4.30;41.90;;;;;;4992880;28;20229;-74
2022/12/15 07:17:53;;;;;;;2.30;1.40;;;4.30;41.20;;;;;;4992939;28;20202;-74
2022/12/15 07:20:18;;;;;;;6.82;2.85;;;4.30;41.10;;;;;;4993552;28;20405;-73
2022/12/15 07:22:49;;;;;;;2.40;1.43;;;4.50;40.60;;;;;;4992354;28;20255;-73
2022/12/15 07:25:15;;;;;;;4.40;2.13;;;4.30;40.80;;;;;;4992874;28;20162;-73
2022/12/15 07:27:40;;;;;;;2.93;2.00;;;4.40;41.20;;;;;;4992543;28;20236;-73
2022/12/15 07:30:07;;;;;;;2.20;1.30;;;4.50;41.00;;;;;;4991339;28;20178;-72
2022/12/15 07:32:32;;;;;;;3.65;2.63;;;4.70;40.30;;;;;;4992476;28;20182;-73
2022/12/15 07:34:59;;;;;;;2.10;1.20;;;4.60;40.60;;;;;;4992480;28;20549;-73
2022/12/15 07:37:25;;;;;;;2.00;1.10;;;4.60;40.50;;;;;;4992264;28;20476;-73
2022/12/15 07:39:50;;;;;;;4.67;2.50;;;4.70;40.10;;;;;;4992368;28;20181;-73
2022/12/15 07:42:16;;;;;;;3.80;2.70;;;4.60;40.10;;;;;;4992332;28;20642;-73
2022/12/15 07:44:41;;;;;;;5.73;3.00;;;4.60;40.30;;;;;;4992627;28;20202;-73
2022/12/15 07:47:07;;;;;;;2.73;1.67;;;4.50;40.30;;;;;;4992618;28;20198;-73
2022/12/15 07:49:32;;;;;;;2.37;1.50;;;4.50;40.80;;;;;;4992246;28;20658;-72
2022/12/15 07:51:58;;;;;;;2.70;1.67;;;4.40;40.90;;;;;;4992292;28;20183;-73
2022/12/15 07:54:24;;;;;;;2.00;1.20;;;4.10;41.70;;;;;;4992281;28;20564;-73
2022/12/15 07:56:49;;;;;;;4.10;2.50;;;4.40;41.70;;;;;;4992122;28;20190;-73
2022/12/15 07:59:16;;;;;;;2.20;1.50;;;4.50;40.90;;;;;;4990751;28;20178;-73
2022/12/15 08:01:41;;;;;;;2.38;1.60;;;4.50;40.90;;;;;;4992325;28;20186;-73
2022/12/15 08:04:07;;;;;;;4.57;2.50;;;4.70;40.40;;;;;;4992479;28;20186;-72
2022/12/15 08:06:32;;;;;;;4.23;2.20;;;4.60;40.10;;;;;;4991396;28;20202;-74
2022/12/15 08:08:58;;;;;;;2.20;1.50;;;4.70;40.30;;;;;;4991921;28;20177;-74
2022/12/15 08:11:24;;;;;;;2.47;1.90;;;4.80;40.50;;;;;;4992050;28;20308;-73
2022/12/15 08:13:51;;;;;;;2.10;1.40;;;4.90;40.00;;;;;;4992060;28;20636;-73
2022/12/15 08:16:17;;;;;;;3.78;2.28;;;4.90;40.50;;;;;;4992123;28;20209;-71
2022/12/15 08:18:43;;;;;;;2.80;1.48;;;4.90;40.00;;;;;;4991864;28;20180;-73
2022/12/15 08:21:10;;;;;;;10.10;2.90;;;4.80;39.80;;;;;;4992281;28;20174;-74
2022/12/15 08:23:39;;;;;;;2.80;1.95;;;4.50;41.10;;;;;;4992055;28;20181;-73
2022/12/15 08:26:06;;;;;;;4.13;1.88;;;4.80;40.00;;;;;;4992214;28;20685;-73
2022/12/15 08:28:36;;;;;;;2.22;1.30;;;4.80;39.80;;;;;;4992466;28;20178;-73
2022/12/15 08:31:10;;;;;;;2.65;1.85;;;4.80;40.50;;;;;;4991921;28;20184;-72
2022/12/15 08:33:36;;;;;;;2.10;1.35;;;4.80;40.10;;;;;;4991568;28;20185;-72
2022/12/15 08:36:05;;;;;;;2.53;1.52;;;4.80;40.50;;;;;;4991351;28;20284;-73
2022/12/15 08:38:32;;;;;;;2.70;1.75;;;4.80;39.80;;;;;;4992096;28;20638;-73
2022/12/15 08:41:05;;;;;;;3.35;2.00;;;4.90;40.50;;;;;;4991671;28;20545;-74
2022/12/15 08:43:30;;;;;;;2.50;1.88;;;5.10;40.00;;;;;;4991773;28;20220;-73
2022/12/15 08:45:56;;;;;;;3.30;2.33;;;5.20;39.70;;;;;;4991596;28;20677;-72
2022/12/15 08:48:22;;;;;;;2.97;1.83;;;5.30;39.80;;;;;;4992038;28;20184;-72
2022/12/15 08:50:47;;;;;;;2.10;1.30;;;5.30;40.00;;;;;;4991891;28;20657;-72
2022/12/15 08:53:13;;;;;;;2.57;1.70;;;5.30;39.40;;;;;;4991516;28;20186;-74
2022/12/15 08:55:39;;;;;;;3.10;1.60;;;5.30;39.50;;;;;;4991466;28;20715;-73
2022/12/15 08:58:05;;;;;;;3.35;2.28;;;5.50;39.10;;;;;;4991937;28;20180;-73
2022/12/15 09:00:30;;;;;;;2.17;1.40;;;5.40;39.30;;;;;;4991756;28;20314;-73
2022/12/15 09:02:59;;;;;;;3.37;2.57;;;5.30;39.30;;;;;;4991387;28;20170;-73
2022/12/15 09:05:24;;;;;;;2.78;1.73;;;5.20;39.20;;;;;;4991532;28;20198;-73
2022/12/15 09:07:57;;;;;;;2.40;1.70;;;5.30;39.70;;;;;;4991372;28;20216;-72
2022/12/15 09:10:23;;;;;;;2.33;1.70;;;5.40;39.10;;;;;;4991704;28;20584;-73
2022/12/15 09:12:49;;;;;;;2.20;1.60;;;5.50;39.70;;;;;;4991315;28;20178;-73
2022/12/15 09:15:16;;;;;;;2.15;1.40;;;5.70;38.50;;;;;;4991363;28;20245;-74
2022/12/15 09:17:41;;;;;;;6.55;3.08;;;5.90;38.50;;;;;;4991628;28;20186;-73
2022/12/15 09:20:08;;;;;;;2.37;1.53;;;5.70;38.50;;;;;;4991454;28;20174;-73
2022/12/15 09:22:35;;;;;;;3.75;1.95;;;5.60;38.20;;;;;;4992866;28;20220;-73
2022/12/15 09:25:01;;;;;;;2.22;1.38;;;5.70;38.90;;;;;;4994997;28;20205;-72
2022/12/15 09:27:29;;;;;;;2.85;2.17;;;5.90;38.40;;;;;;4994928;28;20193;-73
2022/12/15 09:29:56;;;;;;;3.00;2.15;;;5.90;38.30;;;;;;4995118;28;20689;-73
2022/12/15 09:32:21;;;;;;;5.53;2.05;;;6.00;38.30;;;;;;4994944;28;20189;-73
2022/12/15 09:34:49;;;;;;;2.00;1.33;;;5.90;38.20;;;;;;4994891;28;20206;-73
2022/12/15 09:37:15;;;;;;;1.85;1.20;;;5.90;38.10;;;;;;4995008;28;20799;-74
2022/12/15 09:39:40;;;;;;;2.97;1.80;;;5.90;38.90;;;;;;4995319;28;20288;-74
2022/12/15 09:42:29;;;;;;;1.90;1.20;;;5.80;38.20;;;;;;4994975;28;20167;-73
2022/12/15 09:45:20;;;;;;;2.67;1.63;;;5.80;38.30;;;;;;4994668;28;20189;-73
2022/12/15 09:47:55;;;;;;;3.38;2.50;;;5.90;38.50;;;;;;4994686;28;20543;-73
2022/12/15 09:50:28;;;;;;;2.33;1.70;;;6.00;39.00;;;;;;4994782;28;20178;-73
2022/12/15 09:52:59;;;;;;;3.35;2.00;;;5.90;38.80;;;;;;4994231;28;20245;-73
2022/12/15 09:55:31;;;;;;;2.72;2.13;;;6.00;38.70;;;;;;4994217;28;20190;-74
2022/12/15 09:58:06;;;;;;;1.90;1.20;;;6.10;38.40;;;;;;4994879;28;20178;-73
2022/12/15 10:01:10;;;;;;;2.25;1.50;;;5.90;38.20;;;;;;4994558;28;20649;-72
2022/12/15 10:04:04;;;;;;;3.92;2.08;;;4.90;40.50;;;;;;4993205;28;20194;-72
2022/12/15 10:06:36;;;;;;;7.95;3.65;;;5.30;41.30;;;;;;4994298;28;20194;-73
2022/12/15 10:09:15;;;;;;;2.05;1.33;;;5.50;40.00;;;;;;4994328;28;20169;-73
2022/12/15 10:11:53;;;;;;;2.42;1.80;;;4.80;40.80;;;;;;4994237;28;20166;-73
2022/12/15 10:14:33;;;;;;;2.38;1.65;;;5.00;41.40;;;;;;4994055;28;20696;-73
2022/12/15 10:17:31;;;;;;;2.00;1.30;;;5.40;40.80;;;;;;4994043;28;20677;-73
2022/12/15 10:20:00;;;;;;;2.97;1.85;;;5.50;39.90;;;;;;4993563;28;20361;-73
2022/12/15 10:22:31;;;;;;;5.03;2.85;;;5.50;40.00;;;;;;4994807;28;20526;-74
2022/12/15 10:25:13;;;;;;;1.90;1.30;;;5.40;40.00;;;;;;4994057;28;20170;-73
2022/12/15 10:28:06;;;;;;;1.80;1.20;;;5.20;40.20;;;;;;4994007;28;20200;-73
2022/12/15 10:30:32;;;;;;;2.00;1.50;;;5.20;41.20;;;;;;4994007;28;20693;-73
2022/12/15 10:33:20;;;;;;;3.42;2.55;;;5.50;40.10;;;;;;4993858;28;20182;-74
2022/12/15 10:35:46;;;;;;;2.53;1.80;;;5.40;40.50;;;;;;4994045;28;20214;-73
2022/12/15 10:38:29;;;;;;;1.80;1.20;;;5.10;41.20;;;;;;4998396;28;20166;-72
2022/12/15 10:40:59;;;;;;;2.10;1.52;;;5.40;40.20;;;;;;4999694;28;20249;-73
2022/12/15 10:43:29;;;;;;;1.95;1.20;;;5.60;39.80;;;;;;4993667;28;20182;-73
2022/12/15 10:46:22;;;;;;;1.90;1.30;;;5.70;39.50;;;;;;4993303;28;20741;-73
2022/12/15 10:48:52;;;;;;;2.38;1.85;;;5.80;39.40;;;;;;4993610;28;20166;-73
2022/12/15 10:51:31;;;;;;;2.13;1.55;;;5.90;39.00;;;;;;4993510;28;20241;-73
2022/12/15 10:54:04;;;;;;;2.20;1.60;;;5.80;39.40;;;;;;4993190;28;20177;-73
2022/12/15 10:56:32;;;;;;;2.97;2.35;;;5.80;39.60;;;;;;4993445;28;20272;-73
2022/12/15 10:59:05;;;;;;;2.10;1.60;;;5.90;39.20;;;;;;4993438;28;20193;-73
2022/12/15 11:01:33;;;;;;;3.35;2.10;;;6.10;39.20;;;;;;4993279;28;20178;-73
2022/12/15 11:03:59;;;;;;;3.42;1.90;;;6.00;39.10;;;;;;4992930;28;20174;-74
2022/12/15 11:06:25;;;;;;;2.13;1.50;;;4.00;36.70;;;;;;4992629;28;20628;-73
2022/12/15 11:08:55;;;;;;;3.10;1.85;;;6.10;39.00;;;;;;4993123;28;20178;-72
2022/12/15 11:14:23;;;;;;;2.28;1.60;;;6.00;38.90;;;;;;4993123;28;20192;-73
2022/12/15 11:16:54;;;;;;;5.20;2.47;;;6.20;38.90;;;;;;4992628;28;20201;-73
2022/12/15 11:19:42;;;;;;;2.90;1.80;;;6.20;38.60;;;;;;4993059;28;20655;-73
2022/12/15 11:22:17;;;;;;;1.98;1.35;;;6.20;39.70;;;;;;4992634;28;20174;-73
2022/12/15 11:24:57;;;;;;;2.08;1.42;;;6.30;38.10;;;;;;4993107;28;20170;-73
2022/12/15 11:27:39;;;;;;;2.45;1.95;;;6.50;37.70;;;;;;4992733;28;20196;-73
2022/12/15 11:30:19;;;;;;;3.95;2.28;;;6.10;38.60;;;;;;4992575;28;20185;-73
2022/12/15 11:32:49;;;;;;;3.40;2.63;;;6.10;38.80;;;;;;4992634;28;20245;-72
2022/12/15 11:35:21;;;;;;;2.95;2.13;;;6.50;38.10;;;;;;4992853;28;20236;-74
2022/12/15 11:38:04;;;;;;;2.85;1.65;;;6.60;38.20;;;;;;4992471;28;20185;-73
2022/12/15 11:40:40;;;;;;;2.53;1.73;;;6.60;37.70;;;;;;4992549;28;20634;-72
2022/12/15 11:43:24;;;;;;;2.50;1.70;;;6.60;38.10;;;;;;4992509;28;20173;-72
2022/12/15 11:46:08;;;;;;;2.92;2.00;;;6.80;37.30;;;;;;4992159;28;20232;-74
2022/12/15 11:48:58;;;;;;;2.55;1.48;;;6.80;37.80;;;;;;4992636;28;20178;-73
2022/12/15 11:51:35;;;;;;;2.85;1.70;;;6.50;38.30;;;;;;4992232;28;20185;-73
2022/12/15 11:54:14;;;;;;;3.00;1.75;;;6.50;38.60;;;;;;4992353;28;20176;-74
2022/12/15 11:56:50;;;;;;;1.80;1.20;;;6.80;38.00;;;;;;4990984;28;20223;-74
2022/12/15 11:59:37;;;;;;;2.00;1.30;;;6.70;38.10;;;;;;4992730;28;20170;-73
2022/12/15 12:02:28;;;;;;;3.08;2.63;;;6.80;38.30;;;;;;4992045;28;20169;-73
2022/12/15 12:04:56;;;;;;;2.03;1.30;;;7.10;37.20;;;;;;4992047;28;20649;-73
2022/12/15 12:07:47;;;;;;;1.90;1.30;;;7.10;37.10;;;;;;4991717;28;20249;-73
2022/12/15 12:10:34;;;;;;;2.55;1.92;;;7.00;37.30;;;;;;4992303;28;20220;-73
2022/12/15 12:13:36;;;;;;;2.55;1.63;;;7.20;37.40;;;;;;4991878;28;20522;-73
2022/12/15 12:16:17;;;;;;;2.80;1.90;;;7.30;36.70;;;;;;4992045;28;20713;-73
2022/12/15 12:19:08;;;;;;;3.17;2.20;;;6.80;37.70;;;;;;4992404;28;20574;-73
2022/12/15 12:21:42;;;;;;;4.00;2.83;;;6.80;38.10;;;;;;4991924;28;20530;-72
2022/12/15 12:24:25;;;;;;;2.63;2.03;;;6.90;38.40;;;;;;4991876;28;20177;-73
2022/12/15 12:26:57;;;;;;;2.00;1.42;;;7.00;37.10;;;;;;4991962;28;20205;-72
2022/12/15 12:29:39;;;;;;;2.42;1.80;;;6.70;38.20;;;;;;4992191;28;20178;-73
2022/12/15 12:32:38;;;;;;;2.20;1.60;;;6.80;38.20;;;;;;4991808;28;20730;-73
2022/12/15 12:35:27;;;;;;;2.78;1.85;;;6.70;38.20;;;;;;4991998;28;20201;-74
2022/12/15 12:38:00;;;;;;;3.65;2.55;;;6.70;38.40;;;;;;4991241;28;20210;-72
2022/12/15 12:40:49;;;;;;;1.80;1.30;;;6.80;38.50;;;;;;4990759;28;20178;-72
2022/12/15 12:43:26;;;;;;;1.85;1.50;;;6.70;38.80;;;;;;4991835;28;20645;-73
2022/12/15 12:45:59;;;;;;;3.95;2.40;;;6.60;39.00;;;;;;4991818;28;20205;-72
2022/12/15 12:48:33;;;;;;;2.20;1.50;;;6.50;39.00;;;;;;4991624;28;20166;-73
2022/12/15 12:51:21;;;;;;;2.83;2.10;;;6.40;38.50;;;;;;4991800;28;20177;-73
2022/12/15 12:53:48;;;;;;;1.88;1.30;;;6.10;39.80;;;;;;4991555;28;20672;-73
2022/12/15 12:56:29;;;;;;;3.30;2.17;;;5.90;40.30;;;;;;4991559;28;20678;-73
2022/12/15 12:58:54;;;;;;;4.03;2.88;;;6.10;40.30;;;;;;4994612;28;20544;-73
2022/12/15 13:01:31;;;;;;;3.30;2.40;;;5.90;40.90;;;;;;4995651;28;20178;-73
2022/12/15 13:04:29;;;;;;;2.67;2.13;;;6.20;40.40;;;;;;4995003;28;20646;-73
2022/12/15 13:06:56;;;;;;;2.78;1.80;;;5.90;40.90;;;;;;4994625;28;20206;-73
2022/12/15 13:09:23;;;;;;;5.55;3.28;;;5.80;40.80;;;;;;4995440;28;20174;-73
2022/12/15 13:11:52;;;;;;;2.00;1.50;;;5.80;40.50;;;;;;4995545;28;20197;-73
2022/12/15 13:14:41;;;;;;;2.20;1.65;;;5.80;41.30;;;;;;4994963;28;20273;-73
2022/12/15 13:17:18;;;;;;;1.80;1.20;;;5.80;40.60;;;;;;4995707;28;20210;-73
2022/12/15 13:19:52;;;;;;;1.90;1.30;;;6.00;40.80;;;;;;4994953;28;20657;-73
2022/12/15 13:22:34;;;;;;;2.72;1.92;;;5.90;41.00;;;;;;4995254;28;20657;-73
2022/12/15 13:25:01;;;;;;;1.95;1.40;;;6.00;41.20;;;;;;4995404;28;20731;-73
2022/12/15 13:27:37;;;;;;;1.98;1.48;;;6.20;40.50;;;;;;4994939;28;20198;-73
2022/12/15 13:30:08;;;;;;;3.05;2.25;;;6.30;40.30;;;;;;4994812;28;20182;-72
2022/12/15 13:32:38;;;;;;;4.47;2.00;;;6.30;40.10;;;;;;4994938;28;20176;-73
2022/12/15 13:35:13;;;;;;;2.97;1.67;;;6.10;40.30;;;;;;4994710;28;20681;-73
2022/12/15 13:37:45;;;;;;;8.20;2.25;;;6.00;40.90;;;;;;4994374;28;20259;-73
2022/12/15 13:40:36;;;;;;;2.33;1.45;;;5.70;41.90;;;;;;4994851;28;20178;-73
2022/12/15 13:43:04;;;;;;;1.90;1.50;;;5.40;42.30;;;;;;4994633;28;20170;-73
2022/12/15 13:45:36;;;;;;;2.05;1.50;;;5.70;42.40;;;;;;4994596;28;20213;-73
2022/12/15 13:48:18;;;;;;;3.13;2.13;;;5.90;41.60;;;;;;4994652;28;20236;-73
2022/12/15 13:51:15;;;;;;;2.17;1.63;;;6.10;41.10;;;;;;4994646;28;20174;-73
2022/12/15 13:53:53;;;;;;;2.30;1.80;;;6.20;40.40;;;;;;4993672;28;20273;-73
2022/12/15 13:57:01;;;;;;;2.00;1.20;;;6.10;41.20;;;;;;4994516;28;20205;-73
2022/12/15 13:59:46;;;;;;;2.38;1.73;;;6.30;40.60;;;;;;4994166;28;20172;-73
2022/12/15 14:02:30;;;;;;;1.80;1.23;;;5.90;41.50;;;;;;4994137;28;20185;-72
2022/12/15 14:05:11;;;;;;;3.72;2.22;;;6.20;41.10;;;;;;4994257;28;20688;-73
2022/12/15 14:07:44;;;;;;;13.35;2.33;;;6.10;40.60;;;;;;4993722;28;20217;-73
2022/12/15 14:10:23;;;;;;;2.67;1.58;;;6.00;41.60;;;;;;4994112;28;20240;-73
2022/12/15 14:12:50;;;;;;;3.10;2.22;;;6.20;41.00;;;;;;4994171;28;20208;-73
2022/12/15 14:15:18;;;;;;;9.25;2.67;;;6.20;41.80;;;;;;4993748;28;20206;-73
2022/12/15 14:17:54;;;;;;;3.03;2.08;;;6.30;40.70;;;;;;4994143;28;20227;-73
2022/12/15 14:20:24;;;;;;;1.70;1.20;;;6.30;41.00;;;;;;4994073;28;20689;-73
2022/12/15 14:22:51;;;;;;;4.07;1.95;;;6.10;41.60;;;;;;4993662;28;20257;-73
2022/12/15 14:25:20;;;;;;;2.03;1.38;;;6.10;41.70;;;;;;4993981;28;20185;-73
2022/12/15 14:27:46;;;;;;;4.22;2.47;;;6.10;41.80;;;;;;4993932;28;20174;-73
2022/12/15 14:30:18;;;;;;;3.75;1.50;;;6.20;41.30;;;;;;4993887;28;20551;-73
2022/12/15 14:32:48;;;;;;;2.38;1.83;;;6.30;41.20;;;;;;4993459;28;20178;-73
2022/12/15 14:35:27;;;;;;;2.00;1.50;;;6.50;40.80;;;;;;4993469;28;20245;-73
2022/12/15 14:37:55;;;;;;;1.95;1.63;;;6.40;40.60;;;;;;4993375;28;20186;-73
2022/12/15 14:40:23;;;;;;;2.83;1.98;;;6.60;40.20;;;;;;4993916;28;20688;-74
2022/12/15 14:42:50;;;;;;;3.38;1.77;;;6.30;40.30;;;;;;4993491;28;20166;-73
2022/12/15 14:45:23;;;;;;;1.92;1.45;;;6.20;40.70;;;;;;4993410;28;20669;-73
2022/12/15 14:48:01;;;;;;;2.08;1.67;;;6.20;40.40;;;;;;4993334;28;20533;-72
2022/12/15 14:50:27;;;;;;;2.30;1.60;;;6.00;40.80;;;;;;4993601;28;20555;-72
2022/12/15 14:52:58;;;;;;;1.93;1.40;;;5.90;40.80;;;;;;4993291;28;20253;-73
2022/12/15 14:55:34;;;;;;;2.00;1.40;;;6.00;40.80;;;;;;4991967;28;20194;-73
2022/12/15 14:58:00;;;;;;;1.90;1.30;;;5.90;40.90;;;;;;4993536;28;20181;-73
2022/12/15 15:00:30;;;;;;;1.80;1.20;;;6.00;40.80;;;;;;4993383;28;20178;-73
2022/12/15 15:03:37;;;;;;;3.00;2.15;;;5.80;41.10;;;;;;4993218;28;20186;-73
2022/12/15 15:06:12;;;;;;;3.13;2.53;;;5.80;41.70;;;;;;4989871;28;20488;-73
2022/12/15 15:09:01;;;;;;;6.20;3.42;;;5.60;41.90;;;;;;4990041;28;20212;-73
2022/12/15 15:11:32;;;;;;;5.35;3.15;;;5.70;41.90;;;;;;4990087;28;20182;-73
2022/12/15 15:14:12;;;;;;;1.80;1.20;;;5.50;42.50;;;;;;4990057;28;20650;-73
2022/12/15 15:16:38;;;;;;;2.10;1.65;;;5.70;42.60;;;;;;4989962;28;20291;-73
2022/12/15 15:19:04;;;;;;;1.70;1.40;;;5.80;41.90;;;;;;4991110;28;20625;-73
2022/12/15 15:21:35;;;;;;;1.80;1.23;;;5.90;41.30;;;;;;4989650;28;20503;-71
2022/12/15 15:24:09;;;;;;;3.15;1.90;;;5.90;41.70;;;;;;4990072;28;20174;-73
2022/12/15 15:26:35;;;;;;;2.65;1.63;;;6.00;41.40;;;;;;4990482;28;20212;-72
2022/12/15 15:29:01;;;;;;;2.10;1.50;;;5.90;41.30;;;;;;4989815;28;20190;-73
2022/12/15 15:31:36;;;;;;;3.00;1.60;;;5.70;41.80;;;;;;4990124;28;20177;-73
2022/12/15 15:34:02;;;;;;;4.38;2.35;;;5.80;41.50;;;;;;4989463;28;20282;-73
2022/12/15 15:36:33;;;;;;;1.80;1.33;;;5.80;41.50;;;;;;4989616;28;20217;-72
2022/12/15 15:39:01;;;;;;;1.73;1.13;;;5.90;41.10;;;;;;4989796;28;20179;-73
2022/12/15 15:41:28;;;;;;;2.28;1.65;;;6.00;41.00;;;;;;4991078;28;20587;-73